Time;durP1;ratioP1;P1;durP2;ratioP2;P2;SDS_P1;SDS_P2;PMS_P1;PMS_P2;Temp;Humidity;BMP_temperature;BMP_pressure;BME280_temperature;BME280_humidity;BME280_pressure;Samples;Min_cycle;Max_cycle;Signal;HPM_P1;HPM_P2
2022/07/10 00:00:36;;;;;;;4.70;1.50;;;15.40;99.90;;;;;;5111014;28;20054;-69
2022/07/10 00:03:02;;;;;;;6.47;1.70;;;15.40;99.90;;;;;;5109293;28;20040;-69
2022/07/10 00:05:28;;;;;;;12.50;1.83;;;15.30;99.90;;;;;;5111151;28;20067;-69
2022/07/10 00:07:54;;;;;;;5.80;1.45;;;15.30;99.90;;;;;;5110676;28;20503;-69
2022/07/10 00:10:21;;;;;;;7.88;2.03;;;15.30;99.90;;;;;;5110656;28;20028;-69
2022/07/10 00:12:48;;;;;;;4.50;1.15;;;15.30;99.90;;;;;;5109350;28;20131;-69
2022/07/10 00:15:15;;;;;;;9.05;1.55;;;15.30;99.90;;;;;;5108971;28;20069;-69
2022/07/10 00:17:42;;;;;;;10.77;1.83;;;15.30;99.90;;;;;;5110578;28;20035;-69
2022/07/10 00:20:09;;;;;;;8.02;1.58;;;15.30;99.90;;;;;;5109176;28;20100;-69
2022/07/10 00:22:36;;;;;;;12.50;1.83;;;15.30;99.90;;;;;;5110270;28;20161;-69
2022/07/10 00:25:03;;;;;;;5.03;1.60;;;15.20;99.90;;;;;;5110461;28;20069;-69
2022/07/10 00:27:28;;;;;;;4.88;1.50;;;15.20;99.90;;;;;;5110850;28;20035;-69
2022/07/10 00:29:54;;;;;;;12.27;1.98;;;15.10;99.90;;;;;;5110574;28;20356;-69
2022/07/10 00:32:19;;;;;;;9.63;1.70;;;15.20;99.90;;;;;;5110226;28;20086;-69
2022/07/10 00:34:45;;;;;;;9.60;1.50;;;15.10;99.90;;;;;;5110327;28;20637;-69
2022/07/10 00:37:11;;;;;;;7.57;1.55;;;15.20;99.90;;;;;;5108809;28;20115;-69
2022/07/10 00:39:37;;;;;;;5.70;1.52;;;15.20;99.90;;;;;;5111040;28;20035;-69
2022/07/10 00:42:11;;;;;;;8.20;1.77;;;15.20;99.90;;;;;;5112531;28;20043;-69
2022/07/10 00:44:38;;;;;;;4.97;1.40;;;15.10;99.90;;;;;;5112659;28;20138;-69
2022/07/10 00:47:04;;;;;;;14.63;1.70;;;15.10;99.90;;;;;;5113976;28;20054;-69
2022/07/10 00:49:31;;;;;;;6.28;1.67;;;15.20;99.90;;;;;;5113896;28;20504;-69
2022/07/10 00:51:58;;;;;;;11.75;2.40;;;15.10;99.90;;;;;;5114111;28;20719;-69
2022/07/10 00:54:24;;;;;;;13.40;1.75;;;15.10;99.90;;;;;;5112431;28;20079;-68
2022/07/10 00:56:50;;;;;;;9.52;1.60;;;15.10;99.90;;;;;;5115061;27;20074;-68
2022/07/10 00:59:15;;;;;;;5.97;1.40;;;15.10;99.90;;;;;;5137380;28;20024;-69
2022/07/10 01:01:41;;;;;;;7.82;1.60;;;15.10;99.90;;;;;;5127742;27;20039;-69
2022/07/10 01:04:06;;;;;;;7.93;1.63;;;15.10;99.90;;;;;;5112178;28;20143;-69
2022/07/10 01:06:32;;;;;;;7.60;1.55;;;15.10;99.90;;;;;;5113745;28;20039;-69
2022/07/10 01:08:58;;;;;;;12.98;1.70;;;15.10;99.90;;;;;;5095298;28;20039;-69
2022/07/10 01:11:24;;;;;;;10.77;1.98;;;15.10;99.90;;;;;;5113728;28;20036;-69
2022/07/10 01:13:49;;;;;;;8.60;1.70;;;15.20;99.90;;;;;;5111880;28;20092;-69
2022/07/10 01:16:15;;;;;;;7.63;1.95;;;15.10;99.90;;;;;;5112342;28;20404;-69
2022/07/10 01:18:41;;;;;;;6.78;1.73;;;15.20;99.90;;;;;;5113520;28;20044;-69
2022/07/10 01:21:26;;;;;;;5.15;1.50;;;15.20;99.90;;;;;;5113334;28;20488;-69
2022/07/10 01:23:52;;;;;;;10.63;1.85;;;15.20;99.90;;;;;;5113398;28;20046;-69
2022/07/10 01:26:20;;;;;;;7.20;1.50;;;15.10;99.90;;;;;;5111817;28;20407;-69
2022/07/10 01:28:48;;;;;;;10.88;1.95;;;15.10;99.90;;;;;;5112104;28;20062;-69
2022/07/10 01:31:13;;;;;;;8.90;1.60;;;15.10;99.90;;;;;;5113297;28;20119;-69
2022/07/10 01:33:39;;;;;;;5.88;1.70;;;15.10;99.90;;;;;;5112799;28;20126;-69
2022/07/10 01:36:05;;;;;;;5.93;1.25;;;15.10;99.90;;;;;;5111824;28;20035;-69
2022/07/10 01:38:31;;;;;;;17.60;1.92;;;15.10;99.90;;;;;;5113178;28;20123;-68
2022/07/10 01:40:56;;;;;;;10.98;1.55;;;15.10;99.90;;;;;;5112946;28;20138;-69
2022/07/10 01:43:22;;;;;;;10.57;2.00;;;15.10;99.90;;;;;;5111489;28;20089;-69
2022/07/10 01:45:48;;;;;;;11.30;2.10;;;15.10;99.90;;;;;;5111689;28;20497;-69
2022/07/10 01:48:14;;;;;;;10.68;2.00;;;15.10;99.90;;;;;;5112919;28;20047;-69
2022/07/10 01:50:40;;;;;;;10.43;1.80;;;15.10;99.90;;;;;;5112617;28;20050;-69
2022/07/10 01:53:05;;;;;;;7.30;1.50;;;15.10;99.90;;;;;;5110945;28;20066;-69
2022/07/10 01:55:31;;;;;;;9.48;1.35;;;15.10;99.90;;;;;;5111357;28;20044;-68
2022/07/10 01:57:57;;;;;;;7.05;1.85;;;15.00;99.90;;;;;;5112744;28;20036;-69
2022/07/10 02:00:23;;;;;;;9.63;1.92;;;15.00;99.90;;;;;;5112775;28;20035;-69
2022/07/10 02:04:40;;;;;;;17.88;2.20;;;14.90;99.90;;;;;;5111092;28;20047;-68
2022/07/10 02:05:35;;;;;;;9.43;2.00;;;14.90;99.90;;;;;;5118609;28;20027;-69
2022/07/10 02:08:03;;;;;;;7.70;1.50;;;14.80;99.90;;;;;;5137593;28;20065;-70
2022/07/10 02:10:28;;;;;;;6.75;1.38;;;14.90;99.90;;;;;;5118819;28;20073;-69
2022/07/10 02:12:55;;;;;;;7.95;2.00;;;14.80;99.90;;;;;;5111039;28;20031;-69
2022/07/10 02:15:21;;;;;;;8.88;1.88;;;14.80;99.90;;;;;;5110851;28;20094;-69
2022/07/10 02:17:47;;;;;;;7.50;1.88;;;14.80;99.90;;;;;;5112217;28;20487;-68
2022/07/10 02:20:13;;;;;;;8.43;2.03;;;14.80;99.90;;;;;;5113340;28;20043;-68
2022/07/10 02:22:38;;;;;;;6.80;1.60;;;14.70;99.90;;;;;;5112977;28;20039;-69
2022/07/10 02:25:04;;;;;;;8.40;1.42;;;14.70;99.90;;;;;;5113165;28;20057;-69
2022/07/10 02:27:30;;;;;;;5.28;1.40;;;14.70;99.90;;;;;;5111627;28;20043;-69
2022/07/10 02:29:56;;;;;;;14.25;1.95;;;14.70;99.90;;;;;;5110878;28;20039;-68
2022/07/10 02:32:21;;;;;;;10.07;1.60;;;14.60;99.90;;;;;;5111698;28;20453;-69
2022/07/10 02:34:47;;;;;;;10.25;1.38;;;14.60;99.90;;;;;;5093451;28;20387;-69
2022/07/10 02:37:13;;;;;;;10.73;1.45;;;14.60;99.90;;;;;;5112064;28;20046;-69
2022/07/10 02:39:38;;;;;;;10.90;1.83;;;14.60;99.90;;;;;;5110386;28;20039;-69
2022/07/10 02:42:04;;;;;;;4.75;1.52;;;14.60;99.90;;;;;;5111628;28;20112;-67
2022/07/10 02:44:30;;;;;;;11.15;1.65;;;14.50;99.90;;;;;;5111511;28;20043;-67
2022/07/10 02:46:55;;;;;;;9.75;1.77;;;14.50;99.90;;;;;;5111375;28;20047;-68
2022/07/10 02:49:21;;;;;;;8.75;1.63;;;14.60;99.90;;;;;;5111780;28;20581;-68
2022/07/10 02:51:46;;;;;;;9.48;1.88;;;14.50;99.90;;;;;;5093462;28;20063;-68
2022/07/10 02:54:12;;;;;;;5.05;1.35;;;14.50;99.90;;;;;;5111384;28;20140;-67
2022/07/10 02:56:37;;;;;;;7.85;1.98;;;14.40;99.90;;;;;;5111664;28;20035;-67
2022/07/10 02:59:03;;;;;;;11.20;1.58;;;14.40;99.90;;;;;;5111900;28;20031;-67
2022/07/10 03:01:28;;;;;;;8.63;1.80;;;14.30;99.90;;;;;;5110177;28;20472;-67
2022/07/10 03:03:54;;;;;;;11.70;1.92;;;14.30;99.90;;;;;;5110718;28;20451;-67
2022/07/10 03:06:20;;;;;;;13.55;1.65;;;14.40;99.90;;;;;;5111505;28;20163;-67
2022/07/10 03:08:45;;;;;;;9.57;1.52;;;14.40;99.90;;;;;;5111632;28;20046;-67
2022/07/10 03:11:11;;;;;;;14.75;2.10;;;14.40;99.90;;;;;;5112083;28;20500;-67
2022/07/10 03:13:36;;;;;;;9.18;1.85;;;14.30;99.90;;;;;;5115384;27;20043;-68
2022/07/10 03:16:02;;;;;;;8.50;1.50;;;14.30;99.90;;;;;;5135649;28;20055;-68
2022/07/10 03:18:28;;;;;;;7.47;2.15;;;14.20;99.90;;;;;;5118139;28;20058;-68
2022/07/10 03:20:53;;;;;;;8.70;1.50;;;14.30;99.90;;;;;;5108235;28;20286;-67
2022/07/10 03:23:19;;;;;;;9.55;1.85;;;14.20;99.90;;;;;;5108340;28;20028;-68
2022/07/10 03:25:45;;;;;;;8.85;1.83;;;14.20;99.90;;;;;;5109599;28;20050;-70
2022/07/10 03:28:11;;;;;;;7.00;1.90;;;14.20;99.90;;;;;;5109943;28;20082;-68
2022/07/10 03:30:36;;;;;;;8.63;2.33;;;14.20;99.90;;;;;;5110352;28;20040;-68
2022/07/10 03:33:03;;;;;;;4.50;1.40;;;14.10;99.90;;;;;;5110125;28;20088;-68
2022/07/10 03:35:31;;;;;;;10.07;1.70;;;14.20;99.90;;;;;;5109871;28;20032;-68
2022/07/10 03:37:57;;;;;;;6.38;1.63;;;14.10;99.90;;;;;;5108521;28;20126;-68
2022/07/10 03:40:22;;;;;;;6.30;1.27;;;14.10;99.90;;;;;;5109395;28;20143;-68
2022/07/10 03:42:48;;;;;;;9.48;1.73;;;14.10;99.90;;;;;;5110747;28;20030;-68
2022/07/10 03:45:13;;;;;;;9.20;1.65;;;14.10;99.90;;;;;;5110682;28;20118;-68
2022/07/10 03:47:39;;;;;;;7.55;1.70;;;14.10;99.90;;;;;;5110964;28;20499;-68
2022/07/10 03:50:05;;;;;;;7.07;2.00;;;14.20;99.90;;;;;;5110972;28;20499;-68
2022/07/10 03:52:31;;;;;;;5.20;1.80;;;14.20;99.90;;;;;;5110738;28;20031;-68
2022/07/10 03:54:56;;;;;;;8.23;1.70;;;14.20;99.90;;;;;;5110927;28;20076;-68
2022/07/10 04:00:07;;;;;;;6.63;1.40;;;14.30;99.90;;;;;;5109529;28;20405;-68
2022/07/10 04:02:33;;;;;;;10.23;1.90;;;14.30;99.90;;;;;;5109032;28;20065;-68
2022/07/10 04:04:58;;;;;;;8.73;1.50;;;14.40;99.90;;;;;;5109730;28;20043;-68
2022/07/10 04:07:24;;;;;;;12.23;1.73;;;14.40;99.90;;;;;;5108815;28;20050;-68
2022/07/10 04:09:50;;;;;;;9.07;1.45;;;14.40;99.90;;;;;;5110707;28;20045;-68
2022/07/10 04:12:15;;;;;;;12.85;1.63;;;14.40;99.90;;;;;;5109189;28;20123;-68
2022/07/10 04:14:41;;;;;;;4.90;1.40;;;14.50;99.90;;;;;;5111506;28;20040;-68
2022/07/10 04:17:06;;;;;;;8.48;1.83;;;14.50;99.90;;;;;;5113603;28;20117;-68
2022/07/10 04:19:32;;;;;;;5.85;1.50;;;14.50;99.90;;;;;;5114973;27;20114;-68
2022/07/10 04:21:57;;;;;;;6.53;1.42;;;14.50;99.90;;;;;;5116461;28;20110;-68
2022/07/10 04:24:23;;;;;;;10.20;1.55;;;14.50;99.90;;;;;;5136044;28;20039;-68
2022/07/10 04:26:49;;;;;;;11.63;2.00;;;14.50;99.90;;;;;;5124822;28;20086;-68
2022/07/10 04:29:14;;;;;;;9.68;1.80;;;14.50;99.90;;;;;;5115494;28;20173;-68
2022/07/10 04:31:40;;;;;;;3.78;1.50;;;14.50;99.90;;;;;;5113416;28;20352;-68
2022/07/10 04:34:05;;;;;;;8.75;1.67;;;14.50;99.90;;;;;;5112885;28;20052;-68
2022/07/10 04:36:31;;;;;;;8.73;1.65;;;14.60;99.90;;;;;;5113028;28;20031;-68
2022/07/10 04:38:56;;;;;;;6.35;1.60;;;14.50;99.90;;;;;;5114409;28;20039;-68
2022/07/10 04:41:22;;;;;;;4.45;1.55;;;14.60;99.90;;;;;;5113034;28;20035;-68
2022/07/10 04:43:48;;;;;;;8.15;1.60;;;14.60;99.90;;;;;;5095907;28;20495;-68
2022/07/10 04:46:13;;;;;;;11.65;1.73;;;14.60;99.90;;;;;;5112699;28;20039;-68
2022/07/10 04:48:39;;;;;;;9.90;1.60;;;14.60;99.90;;;;;;5113158;28;20035;-68
2022/07/10 04:51:05;;;;;;;7.13;1.73;;;14.60;99.90;;;;;;5095980;28;20467;-68
2022/07/10 04:53:30;;;;;;;5.20;1.35;;;14.70;99.90;;;;;;5113700;28;20063;-68
2022/07/10 04:55:56;;;;;;;9.82;1.30;;;14.60;99.90;;;;;;5113697;28;20031;-68
2022/07/10 04:58:21;;;;;;;8.32;1.50;;;14.70;99.90;;;;;;5114239;28;20036;-68
2022/07/10 05:00:47;;;;;;;11.32;1.67;;;14.70;99.90;;;;;;5112534;28;20050;-67
2022/07/10 05:03:12;;;;;;;9.90;1.55;;;14.70;99.90;;;;;;5112133;28;20135;-68
2022/07/10 05:05:38;;;;;;;7.70;1.60;;;14.70;99.90;;;;;;5112427;28;20521;-68
2022/07/10 05:08:04;;;;;;;9.85;1.88;;;14.70;99.90;;;;;;5112981;28;20530;-68
2022/07/10 05:10:30;;;;;;;9.85;1.63;;;14.70;99.90;;;;;;5113923;28;20046;-68
2022/07/10 05:12:55;;;;;;;13.48;1.70;;;14.80;99.90;;;;;;5112235;28;20054;-68
2022/07/10 05:15:21;;;;;;;8.38;1.50;;;14.80;99.90;;;;;;5113607;28;20067;-68
2022/07/10 05:17:47;;;;;;;6.60;2.15;;;14.80;99.90;;;;;;5113542;28;20043;-68
2022/07/10 05:20:12;;;;;;;8.23;1.77;;;14.90;99.90;;;;;;5112304;28;20506;-68
2022/07/10 05:22:38;;;;;;;9.35;1.55;;;14.90;99.90;;;;;;5098137;28;20522;-69
2022/07/10 05:25:04;;;;;;;7.25;1.45;;;14.90;99.90;;;;;;5097281;28;20048;-70
2022/07/10 05:27:30;;;;;;;7.55;1.60;;;14.90;99.90;;;;;;5079972;28;20040;-69
2022/07/10 05:29:55;;;;;;;7.07;1.45;;;14.90;99.90;;;;;;5063357;28;20555;-69
2022/07/10 05:32:21;;;;;;;9.55;1.67;;;15.00;99.90;;;;;;5091570;28;20104;-68
2022/07/10 05:34:47;;;;;;;8.05;1.58;;;15.00;99.90;;;;;;5097939;28;20033;-68
2022/07/10 05:37:12;;;;;;;8.73;1.83;;;15.10;99.90;;;;;;5084208;28;20489;-68
2022/07/10 05:39:38;;;;;;;5.72;1.50;;;15.10;99.90;;;;;;5073305;28;20131;-68
2022/07/10 05:42:04;;;;;;;7.43;1.55;;;15.10;99.90;;;;;;5083004;28;20040;-68
2022/07/10 05:44:29;;;;;;;12.68;1.58;;;15.20;99.90;;;;;;5084731;28;20107;-68
2022/07/10 05:46:55;;;;;;;6.68;1.50;;;15.20;99.90;;;;;;5070034;28;20096;-69
2022/07/10 05:49:21;;;;;;;11.55;1.70;;;15.20;99.90;;;;;;5073820;28;20064;-68
2022/07/10 05:51:47;;;;;;;8.57;1.60;;;15.20;99.90;;;;;;5071093;28;20044;-68
2022/07/10 05:54:12;;;;;;;7.25;1.45;;;15.30;99.90;;;;;;5073842;28;20146;-68
2022/07/10 05:56:38;;;;;;;7.25;1.45;;;15.20;99.90;;;;;;5088610;28;20047;-68
2022/07/10 05:59:04;;;;;;;6.70;1.73;;;15.30;99.90;;;;;;5091348;28;20043;-70
2022/07/10 06:01:29;;;;;;;7.90;1.77;;;15.30;99.90;;;;;;5077836;28;20036;-69
2022/07/10 06:03:55;;;;;;;9.30;1.58;;;15.30;99.90;;;;;;5083459;28;20071;-69
2022/07/10 06:06:20;;;;;;;11.40;1.83;;;15.30;99.90;;;;;;5085860;28;20051;-72
2022/07/10 06:08:46;;;;;;;8.80;1.48;;;15.30;99.90;;;;;;5090253;28;20191;-69
2022/07/10 06:11:12;;;;;;;9.13;2.25;;;15.40;99.90;;;;;;5090250;28;20530;-69
2022/07/10 06:13:38;;;;;;;11.15;1.95;;;15.40;99.90;;;;;;5091167;28;20032;-68
2022/07/10 06:16:05;;;;;;;9.55;1.83;;;15.40;99.90;;;;;;5089059;28;20061;-69
2022/07/10 06:18:31;;;;;;;13.32;1.80;;;15.50;99.90;;;;;;5077745;28;20036;-69
2022/07/10 06:20:57;;;;;;;9.05;2.05;;;15.50;99.90;;;;;;5090772;28;20036;-68
2022/07/10 06:23:22;;;;;;;5.90;1.80;;;15.50;99.90;;;;;;5090729;28;20526;-68
2022/07/10 06:25:50;;;;;;;10.07;2.03;;;15.50;99.90;;;;;;5089903;28;20386;-69
2022/07/10 06:28:17;;;;;;;10.70;1.80;;;15.50;99.90;;;;;;5090837;28;20075;-69
2022/07/10 06:30:43;;;;;;;12.50;2.20;;;15.50;99.90;;;;;;5090863;28;20502;-69
2022/07/10 06:33:08;;;;;;;7.80;2.20;;;15.60;99.90;;;;;;5091269;28;20071;-69
2022/07/10 06:35:34;;;;;;;10.45;2.03;;;15.60;99.90;;;;;;5090228;28;20067;-69
2022/07/10 06:38:00;;;;;;;10.57;2.17;;;15.60;99.90;;;;;;5090049;28;20393;-69
2022/07/10 06:40:28;;;;;;;5.28;2.10;;;15.70;99.90;;;;;;5090584;28;20077;-69
2022/07/10 06:42:53;;;;;;;6.60;2.10;;;15.70;99.90;;;;;;5100603;28;20037;-68
2022/07/10 06:45:19;;;;;;;7.75;1.85;;;15.70;99.90;;;;;;5115676;28;20044;-69
2022/07/10 06:47:58;;;;;;;16.13;2.38;;;15.70;99.90;;;;;;5097216;28;20058;-67
2022/07/10 06:50:26;;;;;;;10.10;2.63;;;15.80;99.90;;;;;;5086536;28;20189;-67
2022/07/10 06:52:52;;;;;;;11.65;1.85;;;15.80;99.90;;;;;;5072608;28;20036;-67
2022/07/10 06:55:21;;;;;;;14.68;2.17;;;15.80;99.90;;;;;;5087310;28;20028;-68
2022/07/10 06:57:47;;;;;;;8.25;1.90;;;15.90;99.90;;;;;;5076210;28;20047;-68
2022/07/10 07:00:13;;;;;;;9.63;2.08;;;15.90;99.90;;;;;;5074808;28;20036;-68
2022/07/10 07:02:39;;;;;;;8.63;2.13;;;15.80;99.90;;;;;;5088981;28;20123;-68
2022/07/10 07:05:05;;;;;;;9.30;1.80;;;15.90;99.90;;;;;;5088636;28;20031;-68
2022/07/10 07:07:31;;;;;;;9.48;2.13;;;16.00;99.90;;;;;;5088534;28;20104;-68
2022/07/10 07:09:57;;;;;;;11.35;2.28;;;16.00;99.90;;;;;;5090201;28;20438;-72
2022/07/10 07:12:22;;;;;;;14.75;2.70;;;16.00;99.90;;;;;;5088642;28;20133;-71
2022/07/10 07:14:48;;;;;;;6.68;2.13;;;16.10;99.90;;;;;;5089977;28;20051;-71
2022/07/10 07:17:21;;;;;;;14.13;2.28;;;16.10;99.90;;;;;;5083906;28;20477;-71
2022/07/10 07:25:14;;;;;;;10.98;2.00;;;16.20;99.90;;;;;;5088657;28;20207;-71
2022/07/10 07:27:40;;;;;;;5.65;1.60;;;16.30;99.90;;;;;;5090018;28;20075;-71
2022/07/10 07:30:10;;;;;;;7.72;1.95;;;16.30;99.90;;;;;;5088536;28;20039;-71
2022/07/10 07:32:36;;;;;;;9.93;1.70;;;16.40;99.90;;;;;;5088264;28;20040;-72
2022/07/10 07:35:03;;;;;;;6.90;1.27;;;16.50;99.90;;;;;;5089401;28;20090;-71
2022/07/10 07:37:39;;;;;;;5.60;1.08;;;16.50;99.90;;;;;;5089484;28;20044;-72
2022/07/10 07:40:07;;;;;;;5.70;1.23;;;16.60;99.90;;;;;;5089633;28;20466;-72
2022/07/10 07:42:33;;;;;;;8.65;1.52;;;16.60;99.90;;;;;;5088661;28;20531;-71
2022/07/10 07:44:59;;;;;;;3.08;1.23;;;16.80;99.90;;;;;;5088286;28;20058;-72
2022/07/10 07:47:25;;;;;;;7.47;1.35;;;16.80;99.90;;;;;;5089460;28;20097;-72
2022/07/10 07:49:51;;;;;;;4.50;1.20;;;16.70;99.90;;;;;;5091762;28;20127;-72
2022/07/10 07:52:16;;;;;;;4.38;1.20;;;16.80;99.90;;;;;;5099753;28;20052;-73
2022/07/10 07:54:42;;;;;;;3.17;1.10;;;16.80;99.90;;;;;;5099104;28;20121;-68
2022/07/10 07:57:07;;;;;;;4.53;1.38;;;16.90;99.90;;;;;;5089807;28;20063;-68
2022/07/10 07:59:33;;;;;;;6.80;1.25;;;17.00;99.90;;;;;;5089967;28;20043;-68
2022/07/10 08:01:58;;;;;;;5.10;1.10;;;17.00;99.90;;;;;;5089506;28;20399;-68
2022/07/10 08:04:24;;;;;;;5.03;1.30;;;17.10;99.90;;;;;;5087892;28;20067;-68
2022/07/10 08:06:52;;;;;;;5.32;1.30;;;17.00;99.90;;;;;;5089306;28;20048;-68
2022/07/10 08:09:18;;;;;;;4.78;1.15;;;17.10;99.90;;;;;;5089086;28;20048;-68
2022/07/10 08:11:44;;;;;;;6.35;1.00;;;17.20;99.90;;;;;;5089491;28;20097;-68
2022/07/10 08:14:10;;;;;;;3.45;1.13;;;17.30;99.90;;;;;;5089207;28;20047;-68
2022/07/10 08:16:35;;;;;;;7.85;1.02;;;17.30;99.90;;;;;;5088247;28;20127;-68
2022/07/10 08:19:01;;;;;;;3.85;1.10;;;17.40;99.90;;;;;;5087708;28;20032;-68
2022/07/10 08:21:26;;;;;;;5.75;1.15;;;17.50;99.90;;;;;;5089966;28;20434;-67
2022/07/10 08:23:53;;;;;;;7.72;1.20;;;17.40;99.90;;;;;;5089908;28;20047;-68
2022/07/10 08:26:19;;;;;;;4.15;1.10;;;17.30;99.90;;;;;;5090375;28;20048;-67
2022/07/10 08:28:45;;;;;;;4.28;1.10;;;17.50;99.90;;;;;;5090407;28;20397;-68
2022/07/10 08:31:11;;;;;;;3.67;1.10;;;17.40;99.90;;;;;;5088862;28;20108;-68
2022/07/10 08:33:36;;;;;;;5.80;1.30;;;17.30;99.90;;;;;;5089974;28;20048;-68
2022/07/10 08:36:03;;;;;;;3.60;1.30;;;17.30;99.90;;;;;;5071826;28;20039;-68
2022/07/10 08:38:29;;;;;;;1.35;0.90;;;17.30;99.90;;;;;;5089854;28;20074;-68
2022/07/10 08:40:57;;;;;;;3.13;1.23;;;17.30;99.90;;;;;;5089921;28;20064;-68
2022/07/10 08:43:24;;;;;;;4.53;1.25;;;17.20;99.90;;;;;;5089786;28;20047;-68
2022/07/10 08:45:50;;;;;;;3.60;1.20;;;17.10;99.90;;;;;;5089982;28;20443;-68
2022/07/10 08:48:23;;;;;;;3.75;1.20;;;17.00;99.90;;;;;;5089954;28;20657;-68
2022/07/10 08:50:53;;;;;;;7.18;1.63;;;17.20;99.90;;;;;;5090225;28;20500;-68
2022/07/10 08:53:28;;;;;;;5.22;1.13;;;17.10;99.90;;;;;;5089799;28;20032;-68
2022/07/10 08:55:53;;;;;;;3.53;1.20;;;17.10;99.90;;;;;;5090728;28;20381;-68
2022/07/10 08:58:21;;;;;;;5.93;1.38;;;17.20;99.90;;;;;;5093393;28;20157;-68
2022/07/10 09:00:47;;;;;;;4.93;1.63;;;17.20;99.90;;;;;;5093963;28;20121;-68
2022/07/10 09:03:12;;;;;;;1.92;0.80;;;17.20;99.90;;;;;;5100271;28;20032;-68
2022/07/10 09:05:38;;;;;;;3.95;0.85;;;17.20;99.90;;;;;;5093864;28;20064;-71
2022/07/10 09:08:04;;;;;;;3.47;1.13;;;17.20;99.90;;;;;;5091602;28;20064;-71
2022/07/10 09:10:29;;;;;;;5.05;0.90;;;17.10;99.90;;;;;;5091795;28;20040;-71
2022/07/10 09:13:01;;;;;;;5.28;1.10;;;17.20;99.90;;;;;;5091593;28;20051;-70
2022/07/10 09:15:32;;;;;;;4.63;0.93;;;17.00;99.90;;;;;;5091980;28;20047;-71
2022/07/10 09:18:07;;;;;;;3.08;1.00;;;16.90;99.90;;;;;;5092105;28;20079;-70
2022/07/10 09:20:40;;;;;;;5.00;1.00;;;17.00;99.90;;;;;;5093190;28;20508;-70
2022/07/10 09:23:25;;;;;;;5.07;1.20;;;17.00;99.90;;;;;;5091465;28;20036;-71
2022/07/10 09:25:51;;;;;;;5.30;1.20;;;17.10;99.90;;;;;;5092119;28;20052;-70
2022/07/10 09:28:21;;;;;;;3.53;0.95;;;17.20;99.90;;;;;;5097979;28;20122;-70
2022/07/10 09:30:47;;;;;;;4.70;1.25;;;17.10;99.90;;;;;;5110305;28;20503;-70
2022/07/10 09:33:30;;;;;;;2.80;1.13;;;17.20;99.90;;;;;;5113230;28;20092;-71
2022/07/10 09:36:05;;;;;;;4.38;0.98;;;17.30;99.90;;;;;;5111475;28;20050;-71
2022/07/10 09:38:42;;;;;;;4.32;1.35;;;17.40;99.90;;;;;;5113329;28;20039;-71
2022/07/10 09:41:26;;;;;;;3.72;1.25;;;17.50;99.90;;;;;;5111752;28;20088;-71
2022/07/10 09:43:54;;;;;;;3.85;1.80;;;17.50;99.90;;;;;;5111780;28;20134;-71
2022/07/10 09:46:32;;;;;;;2.95;0.60;;;17.50;99.90;;;;;;5112897;28;20035;-71
2022/07/10 09:49:07;;;;;;;4.28;0.85;;;17.40;99.90;;;;;;5113425;28;20063;-72
2022/07/10 09:51:35;;;;;;;4.38;0.98;;;17.50;99.90;;;;;;5095666;28;20164;-68
2022/07/10 09:54:02;;;;;;;3.42;0.90;;;17.40;99.90;;;;;;5112518;28;20051;-67
2022/07/10 09:56:32;;;;;;;2.90;0.80;;;17.50;99.90;;;;;;5113023;28;20036;-67
2022/07/10 09:59:00;;;;;;;1.52;0.93;;;17.40;99.90;;;;;;5113061;28;20126;-68
2022/07/10 10:01:27;;;;;;;6.55;1.48;;;17.20;99.90;;;;;;5094816;28;20039;-68
2022/07/10 10:03:57;;;;;;;5.30;1.30;;;17.20;99.90;;;;;;5113089;28;20096;-68
2022/07/10 10:06:27;;;;;;;3.72;1.20;;;17.20;99.90;;;;;;5113656;28;20048;-68
2022/07/10 10:09:02;;;;;;;1.27;0.80;;;17.40;99.90;;;;;;5130693;28;20035;-67
2022/07/10 10:11:33;;;;;;;3.40;1.00;;;17.30;99.90;;;;;;5124221;28;20119;-68
2022/07/10 10:14:00;;;;;;;5.82;1.40;;;17.20;99.90;;;;;;5110481;28;20043;-68
2022/07/10 10:16:27;;;;;;;3.58;1.30;;;17.30;99.90;;;;;;5110894;28;20499;-68
2022/07/10 10:21:39;;;;;;;4.05;1.38;;;17.40;99.90;;;;;;5088267;28;20046;-69
2022/07/10 10:24:06;;;;;;;3.80;0.93;;;17.50;99.90;;;;;;5099904;28;20040;-70
2022/07/10 10:26:32;;;;;;;2.00;1.17;;;17.60;99.90;;;;;;5112258;28;20066;-70
2022/07/10 10:29:00;;;;;;;3.05;1.35;;;17.70;99.90;;;;;;5111337;28;20039;-71
2022/07/10 10:31:30;;;;;;;3.28;1.27;;;17.70;99.90;;;;;;5112276;28;20047;-70
2022/07/10 10:33:57;;;;;;;4.90;1.45;;;17.70;99.90;;;;;;5108457;28;20500;-71
2022/07/10 10:36:36;;;;;;;6.70;1.23;;;17.70;99.90;;;;;;5097230;28;20527;-71
2022/07/10 10:39:18;;;;;;;2.92;1.27;;;17.40;99.90;;;;;;5083431;28;20446;-72
2022/07/10 10:41:54;;;;;;;4.72;1.65;;;17.40;99.90;;;;;;5081310;28;20117;-72
2022/07/10 10:44:21;;;;;;;3.33;1.35;;;17.50;99.90;;;;;;5078613;28;20055;-70
2022/07/10 10:46:50;;;;;;;5.82;1.48;;;17.30;99.90;;;;;;5075126;28;20409;-70
2022/07/10 10:49:17;;;;;;;7.10;1.50;;;17.30;99.90;;;;;;5073252;28;20238;-70
2022/07/10 10:51:58;;;;;;;4.47;1.48;;;17.20;99.90;;;;;;5074013;28;20036;-70
2022/07/10 10:54:25;;;;;;;4.03;1.25;;;17.10;99.90;;;;;;5084106;28;20076;-70
2022/07/10 10:57:13;;;;;;;5.15;1.52;;;17.20;99.90;;;;;;5076234;28;20131;-70
2022/07/10 10:59:52;;;;;;;3.78;1.40;;;17.20;99.90;;;;;;5086990;28;20043;-71
2022/07/10 11:02:32;;;;;;;3.67;1.30;;;17.20;99.90;;;;;;5077255;28;20040;-71
2022/07/10 11:05:17;;;;;;;4.40;1.60;;;17.20;99.90;;;;;;5081021;28;20039;-70
2022/07/10 11:07:55;;;;;;;4.65;1.75;;;17.20;99.90;;;;;;5079371;28;20062;-70
2022/07/10 11:10:35;;;;;;;4.85;1.40;;;17.40;99.90;;;;;;5080559;28;20049;-70
2022/07/10 11:13:02;;;;;;;3.08;1.30;;;17.40;99.90;;;;;;5082002;28;20051;-70
2022/07/10 11:15:35;;;;;;;5.40;1.65;;;17.40;99.90;;;;;;5081551;28;20044;-70
2022/07/10 11:18:12;;;;;;;4.35;1.85;;;17.50;99.90;;;;;;5075398;28;20037;-70
2022/07/10 11:20:46;;;;;;;6.25;1.85;;;17.60;99.90;;;;;;5091970;28;20039;-70
2022/07/10 11:23:55;;;;;;;7.68;1.50;;;17.50;99.90;;;;;;5082432;28;20461;-70
2022/07/10 11:26:58;;;;;;;3.95;1.70;;;17.70;99.90;;;;;;5070200;28;20421;-70
2022/07/10 11:29:24;;;;;;;7.80;1.98;;;17.80;99.90;;;;;;5079214;28;20495;-70
2022/07/10 11:31:54;;;;;;;8.13;1.75;;;17.90;99.90;;;;;;5080294;28;20107;-70
2022/07/10 11:34:21;;;;;;;4.22;1.67;;;17.90;99.90;;;;;;5076015;28;20504;-70
2022/07/10 11:36:47;;;;;;;4.40;1.80;;;18.10;99.90;;;;;;5073081;28;20040;-70
2022/07/10 11:39:13;;;;;;;5.63;1.80;;;18.20;99.90;;;;;;5080480;28;20384;-70
2022/07/10 11:41:44;;;;;;;6.20;1.40;;;18.20;99.90;;;;;;5079539;28;20035;-70
2022/07/10 11:44:15;;;;;;;7.72;1.58;;;18.30;99.90;;;;;;5077786;28;20500;-70
2022/07/10 11:46:44;;;;;;;3.75;1.60;;;18.30;99.90;;;;;;5101730;28;20043;-70
2022/07/10 11:49:10;;;;;;;9.02;1.67;;;18.30;99.90;;;;;;5111145;28;20495;-70
2022/07/10 11:51:39;;;;;;;4.88;1.48;;;18.20;99.90;;;;;;5111329;28;20036;-72
2022/07/10 11:54:08;;;;;;;6.63;1.90;;;18.20;99.90;;;;;;5092202;28;20043;-71
2022/07/10 11:56:36;;;;;;;5.75;1.80;;;18.30;99.90;;;;;;5109492;28;20049;-72
2022/07/10 11:59:08;;;;;;;2.80;1.73;;;18.30;99.90;;;;;;5097481;28;20396;-71
2022/07/10 12:01:40;;;;;;;6.53;1.87;;;18.30;99.90;;;;;;5089331;28;20105;-71
2022/07/10 12:04:06;;;;;;;;;;;18.40;99.90;;;;;;5088653;28;20543;-71
2022/07/10 12:06:34;;;;;;;7.50;1.90;;;18.40;99.90;;;;;;5089010;28;19916;-71
2022/07/10 12:09:10;;;;;;;6.32;1.80;;;18.60;99.90;;;;;;5089359;28;20044;-72
2022/07/10 12:11:37;;;;;;;7.05;1.67;;;18.50;99.90;;;;;;5089478;28;20052;-71
2022/07/10 12:14:18;;;;;;;3.67;1.40;;;18.50;99.90;;;;;;5089238;28;20044;-71
2022/07/10 12:16:48;;;;;;;5.35;1.85;;;18.50;99.90;;;;;;5089364;28;20097;-72
2022/07/10 12:19:16;;;;;;;3.67;1.30;;;18.50;99.90;;;;;;5088726;28;20040;-71
2022/07/10 12:21:43;;;;;;;6.32;1.65;;;18.40;99.90;;;;;;5089883;28;20036;-71
2022/07/10 12:24:09;;;;;;;4.43;1.60;;;18.20;99.90;;;;;;5090829;28;20044;-71
2022/07/10 12:26:37;;;;;;;5.47;1.42;;;18.20;99.90;;;;;;5106017;28;20483;-71
2022/07/10 12:29:04;;;;;;;4.07;1.50;;;18.20;99.90;;;;;;5101021;28;20518;-70
2022/07/10 12:31:34;;;;;;;4.30;1.83;;;18.30;99.90;;;;;;5090676;28;20114;-71
2022/07/10 12:34:04;;;;;;;1.92;1.33;;;18.40;99.90;;;;;;5089995;28;20040;-72
2022/07/10 12:36:50;;;;;;;3.90;1.70;;;18.40;99.90;;;;;;5091656;28;20032;-70
2022/07/10 12:39:21;;;;;;;4.25;1.55;;;18.50;99.90;;;;;;5094603;28;20039;-71
2022/07/10 12:42:04;;;;;;;8.10;1.70;;;18.40;99.90;;;;;;5093009;28;20036;-72
2022/07/10 12:44:40;;;;;;;10.45;1.67;;;18.40;99.90;;;;;;5093402;28;20035;-69
2022/07/10 12:47:12;;;;;;;5.28;1.80;;;18.40;99.90;;;;;;5094171;28;20104;-70
2022/07/10 12:49:48;;;;;;;5.30;1.60;;;18.40;99.90;;;;;;5092965;28;20043;-71
2022/07/10 12:52:34;;;;;;;5.45;1.90;;;18.30;99.90;;;;;;5093809;28;20416;-71
2022/07/10 12:55:09;;;;;;;6.20;1.90;;;18.40;99.90;;;;;;5093672;28;20044;-70
2022/07/10 12:57:45;;;;;;;12.38;2.03;;;18.30;99.90;;;;;;5092336;28;20040;-70
2022/07/10 13:00:13;;;;;;;4.97;2.13;;;18.30;99.90;;;;;;5093843;28;20046;-70